Time;durP1;ratioP1;P1;durP2;ratioP2;P2;SDS_P1;SDS_P2;PMS_P1;PMS_P2;Temp;Humidity;BMP_temperature;BMP_pressure;BME280_temperature;BME280_humidity;BME280_pressure;Samples;Min_cycle;Max_cycle;Signal;HPM_P1;HPM_P2
2022/05/02 00:00:22;;;;;;;16.13;9.68;;;;;;;;;;5027840;28;20039;-67
2022/05/02 00:02:50;;;;;;;14.63;10.27;;;;;;;;;;5011156;28;20025;-67
2022/05/02 00:05:16;;;;;;;16.38;10.10;;;;;;;;;;5028610;28;20095;-67
2022/05/02 00:07:51;;;;;;;16.10;10.50;;;;;;;;;;5020030;28;20026;-67
2022/05/02 00:10:19;;;;;;;15.20;10.45;;;;;;;;;;5045777;28;20490;-68
2022/05/02 00:12:45;;;;;;;15.82;9.93;;;;;;;;;;5044575;28;20024;-67
2022/05/02 00:15:20;;;;;;;15.30;10.02;;;;;;;;;;5020518;28;20481;-68
2022/05/02 00:18:00;;;;;;;16.20;10.32;;;;;;;;;;5037587;28;20483;-67
2022/05/02 00:20:29;;;;;;;15.82;10.45;;;;;;;;;;5022850;28;20057;-67
2022/05/02 00:23:02;;;;;;;14.80;10.30;;;;;;;;;;5012222;28;20022;-67
2022/05/02 00:25:32;;;;;;;16.33;10.02;;;;;;;;;;5011399;28;20084;-67
2022/05/02 00:27:58;;;;;;;20.13;9.93;;;;;;;;;;5018818;28;20514;-67
2022/05/02 00:30:25;;;;;;;15.93;10.48;;;;;;;;;;5010342;28;20143;-67
2022/05/02 00:32:51;;;;;;;15.40;10.48;;;;;;;;;;5015450;28;20535;-67
2022/05/02 00:35:17;;;;;;;17.25;10.23;;;;;;;;;;5014335;28;20075;-66
2022/05/02 00:37:44;;;;;;;17.45;9.80;;;;;;;;;;5050315;28;20339;-67
2022/05/02 00:40:17;;;;;;;15.00;10.15;;;;;;;;;;5015499;28;20026;-67
2022/05/02 00:42:43;;;;;;;15.50;10.73;;;;;;;;;;5016551;28;20062;-67
2022/05/02 00:45:10;;;;;;;14.40;10.38;;;;;;;;;;5038713;28;20391;-67
2022/05/02 00:47:36;;;;;;;17.55;10.63;;;;;;;;;;5008189;28;20026;-65
2022/05/02 00:50:04;;;;;;;17.40;10.93;;;;;;;;;;5010929;28;20034;-67
2022/05/02 00:52:29;;;;;;;16.02;10.98;;;;;;;;;;5010802;28;20138;-67
2022/05/02 00:54:55;;;;;;;16.88;10.60;;;;;;;;;;5033648;28;20143;-67
2022/05/02 00:57:20;;;;;;;18.65;10.63;;;;;;;;;;5041215;28;20037;-67
2022/05/02 00:59:46;;;;;;;16.77;11.15;;;;;;;;;;5020697;28;20034;-67
2022/05/02 01:02:14;;;;;;;15.35;10.60;;;;;;;;;;5011363;28;20400;-67
2022/05/02 01:04:40;;;;;;;14.77;10.38;;;;;;;;;;5010659;28;20034;-65
2022/05/02 01:07:11;;;;;;;15.88;10.98;;;;;;;;;;5029584;28;20484;-68
2022/05/02 01:09:48;;;;;;;15.30;10.90;;;;;;;;;;5054604;28;20059;-65
2022/05/02 01:12:21;;;;;;;16.83;10.20;;;;;;;;;;5032413;28;20443;-67
2022/05/02 01:14:51;;;;;;;14.38;10.18;;;;;;;;;;5012991;28;20406;-67
2022/05/02 01:17:16;;;;;;;15.35;10.88;;;;;;;;;;5030767;28;20152;-67
2022/05/02 01:19:43;;;;;;;16.48;10.73;;;;;;;;;;5018840;28;20022;-66
2022/05/02 01:22:09;;;;;;;16.17;11.13;;;;;;;;;;5013966;28;20388;-67
2022/05/02 01:24:37;;;;;;;18.85;10.85;;;;;;;;;;5014808;28;20050;-67
2022/05/02 01:27:04;;;;;;;15.73;10.95;;;;;;;;;;5013040;28;20116;-68
2022/05/02 01:29:33;;;;;;;15.65;10.73;;;;;;;;;;5020748;28;20053;-68
2022/05/02 01:32:00;;;;;;;16.33;11.00;;;;;;;;;;5053563;28;20037;-67
2022/05/02 01:34:26;;;;;;;19.48;10.57;;;;;;;;;;5046527;28;20104;-67
2022/05/02 01:36:52;;;;;;;16.05;10.43;;;;;;;;;;5033196;28;20184;-67
2022/05/02 01:39:17;;;;;;;16.25;10.93;;;;;;;;;;5035215;28;20124;-66
2022/05/02 01:41:43;;;;;;;18.55;10.52;;;;;;;;;;5031636;28;20125;-63
2022/05/02 01:44:08;;;;;;;14.98;10.57;;;;;;;;;;5013174;28;20030;-67
2022/05/02 01:46:34;;;;;;;15.73;10.80;;;;;;;;;;5017554;28;20133;-67
2022/05/02 01:48:59;;;;;;;16.75;11.00;;;;;;;;;;5012781;28;20061;-67
2022/05/02 01:51:25;;;;;;;17.38;11.02;;;;;;;;;;5046926;28;20117;-68
2022/05/02 01:53:50;;;;;;;15.27;10.70;;;;;;;;;;5048310;28;20482;-67
2022/05/02 01:56:15;;;;;;;15.48;10.55;;;;;;;;;;5041277;28;20022;-67
2022/05/02 01:58:41;;;;;;;18.08;10.48;;;;;;;;;;5040475;28;20045;-65
2022/05/02 02:01:06;;;;;;;16.65;10.90;;;;;;;;;;5016594;28;20459;-67
2022/05/02 02:03:32;;;;;;;15.80;11.15;;;;;;;;;;5030360;28;20029;-66
2022/05/02 02:05:58;;;;;;;17.35;10.65;;;;;;;;;;5045237;28;20036;-67
2022/05/02 02:08:28;;;;;;;16.77;11.35;;;;;;;;;;5046315;28;20379;-67
2022/05/02 02:10:56;;;;;;;16.23;10.57;;;;;;;;;;5049744;28;20467;-65
2022/05/02 02:13:22;;;;;;;15.82;10.80;;;;;;;;;;5014552;28;20045;-67
2022/05/02 02:15:48;;;;;;;17.98;11.63;;;;;;;;;;5037166;28;20387;-67
2022/05/02 02:18:13;;;;;;;16.48;11.40;;;;;;;;;;5032299;28;20047;-68
2022/05/02 02:20:42;;;;;;;17.70;11.07;;;;;;;;;;5023584;28;20030;-67
2022/05/02 02:23:08;;;;;;;17.30;10.80;;;;;;;;;;5020365;28;20030;-66
2022/05/02 02:25:34;;;;;;;19.35;11.55;;;;;;;;;;5041397;28;20043;-67
2022/05/02 02:28:00;;;;;;;16.73;11.63;;;;;;;;;;5033620;28;20045;-67
2022/05/02 02:30:27;;;;;;;15.88;11.52;;;;;;;;;;5039052;28;20068;-67
2022/05/02 02:32:52;;;;;;;16.55;11.57;;;;;;;;;;5030235;28;20068;-67
2022/05/02 02:35:20;;;;;;;17.27;11.35;;;;;;;;;;5040297;28;20072;-67
2022/05/02 02:37:46;;;;;;;21.23;11.48;;;;;;;;;;5026267;28;20061;-64
2022/05/02 02:40:12;;;;;;;18.15;11.27;;;;;;;;;;5040529;28;20029;-66
2022/05/02 02:42:38;;;;;;;18.08;11.25;;;;;;;;;;5053453;28;20491;-67
2022/05/02 02:45:04;;;;;;;20.00;11.75;;;;;;;;;;5051098;28;20055;-67
2022/05/02 02:47:29;;;;;;;17.77;11.52;;;;;;;;;;5051518;28;20036;-66
2022/05/02 02:49:55;;;;;;;20.20;12.18;;;;;;;;;;5022827;28;20026;-66
2022/05/02 02:52:20;;;;;;;17.85;11.30;;;;;;;;;;5016182;28;20375;-66
2022/05/02 02:54:46;;;;;;;16.63;11.27;;;;;;;;;;5047138;28;20029;-64
2022/05/02 02:57:11;;;;;;;19.92;11.38;;;;;;;;;;5043253;28;20030;-66
2022/05/02 02:59:37;;;;;;;19.02;11.40;;;;;;;;;;5011862;28;20089;-67
2022/05/02 03:02:05;;;;;;;18.08;10.98;;;;;;;;;;5012058;28;20083;-66
2022/05/02 03:07:15;;;;;;;18.13;11.05;;;;;;;;;;5028726;28;20087;-67
2022/05/02 03:09:40;;;;;;;17.05;11.13;;;;;;;;;;5033264;28;20302;-66
2022/05/02 03:12:06;;;;;;;16.65;11.35;;;;;;;;;;5051760;28;20028;-66
2022/05/02 03:14:31;;;;;;;17.58;11.32;;;;;;;;;;5046936;28;20751;-66
2022/05/02 03:16:57;;;;;;;16.25;10.88;;;;;;;;;;5030929;28;20033;-66
2022/05/02 03:19:22;;;;;;;19.02;11.25;;;;;;;;;;5025739;28;20045;-63
2022/05/02 03:21:47;;;;;;;19.98;11.13;;;;;;;;;;5051700;28;20577;-63
2022/05/02 03:24:13;;;;;;;18.50;11.57;;;;;;;;;;5050757;28;20076;-64
2022/05/02 03:26:38;;;;;;;17.42;11.60;;;;;;;;;;5030137;28;20026;-66
2022/05/02 03:29:04;;;;;;;16.13;10.90;;;;;;;;;;5030043;28;20064;-66
2022/05/02 03:31:29;;;;;;;17.90;11.57;;;;;;;;;;5034051;28;20044;-67
2022/05/02 03:33:54;;;;;;;17.05;11.15;;;;;;;;;;5027169;28;20460;-67
2022/05/02 03:36:20;;;;;;;18.63;10.98;;;;;;;;;;5044091;28;20037;-67
2022/05/02 03:38:45;;;;;;;16.80;11.50;;;;;;;;;;5036628;28;20486;-66
2022/05/02 03:41:11;;;;;;;15.68;11.02;;;;;;;;;;5032057;28;20456;-67
2022/05/02 03:43:36;;;;;;;19.15;11.40;;;;;;;;;;5031825;28;20048;-68
2022/05/02 03:46:02;;;;;;;18.55;10.68;;;;;;;;;;5043789;28;20442;-67
2022/05/02 03:48:28;;;;;;;19.58;11.70;;;;;;;;;;5052036;28;20422;-69
2022/05/02 03:50:53;;;;;;;18.50;10.73;;;;;;;;;;5029693;28;20057;-67
2022/05/02 03:53:19;;;;;;;16.25;11.60;;;;;;;;;;5012296;28;20121;-68
2022/05/02 03:55:45;;;;;;;16.38;11.02;;;;;;;;;;5010686;28;20037;-67
2022/05/02 03:58:11;;;;;;;17.23;11.13;;;;;;;;;;5011322;28;20102;-67
2022/05/02 04:00:37;;;;;;;17.65;11.30;;;;;;;;;;5032537;28;20466;-67
2022/05/02 04:03:03;;;;;;;16.73;11.38;;;;;;;;;;5051087;28;20043;-67
2022/05/02 04:05:28;;;;;;;16.02;11.13;;;;;;;;;;5027256;28;20033;-67
2022/05/02 04:07:53;;;;;;;17.65;11.55;;;;;;;;;;5041793;28;20083;-67
2022/05/02 04:10:19;;;;;;;15.75;10.70;;;;;;;;;;5039232;28;20155;-68
2022/05/02 04:12:45;;;;;;;17.10;11.18;;;;;;;;;;5043057;28;20028;-67
2022/05/02 04:15:11;;;;;;;19.92;11.50;;;;;;;;;;5051012;28;20025;-67
2022/05/02 04:17:37;;;;;;;16.75;11.38;;;;;;;;;;5048412;28;20537;-68
2022/05/02 04:20:04;;;;;;;20.90;11.18;;;;;;;;;;5034753;28;20060;-66
2022/05/02 04:22:29;;;;;;;17.75;11.27;;;;;;;;;;5021845;28;20033;-67
2022/05/02 04:24:54;;;;;;;17.75;11.55;;;;;;;;;;5023104;28;20053;-66
2022/05/02 04:27:20;;;;;;;16.70;10.48;;;;;;;;;;5010311;28;20610;-67
2022/05/02 04:29:45;;;;;;;16.40;11.20;;;;;;;;;;5012119;28;20475;-67
2022/05/02 04:32:11;;;;;;;17.70;11.20;;;;;;;;;;5014537;28;20149;-67
2022/05/02 04:34:36;;;;;;;18.48;10.65;;;;;;;;;;5025490;28;20032;-67
2022/05/02 04:37:03;;;;;;;17.35;11.07;;;;;;;;;;5028590;28;20092;-68
2022/05/02 04:39:29;;;;;;;17.42;10.90;;;;;;;;;;5032916;28;20034;-68
2022/05/02 04:41:54;;;;;;;18.08;11.18;;;;;;;;;;5040691;28;20033;-67
2022/05/02 04:44:20;;;;;;;17.52;11.23;;;;;;;;;;5026288;28;20045;-67
2022/05/02 04:46:45;;;;;;;15.32;10.48;;;;;;;;;;5035176;28;20032;-67
2022/05/02 04:49:11;;;;;;;17.50;11.05;;;;;;;;;;5033723;28;20592;-66
2022/05/02 04:51:36;;;;;;;18.60;11.85;;;;;;;;;;5033572;28;20033;-67
2022/05/02 04:54:02;;;;;;;17.85;11.00;;;;;;;;;;5053252;28;20036;-67
2022/05/02 04:56:27;;;;;;;17.15;10.77;;;;;;;;;;5052108;28;20080;-67
2022/05/02 04:58:53;;;;;;;17.77;11.43;;;;;;;;;;5053470;28;20454;-65
2022/05/02 05:01:18;;;;;;;16.92;11.25;;;;;;;;;;5044335;28;20033;-67
2022/05/02 05:03:44;;;;;;;18.98;11.43;;;;;;;;;;5034141;28;20056;-66
2022/05/02 05:06:09;;;;;;;16.58;10.95;;;;;;;;;;5035098;28;20056;-67
2022/05/02 05:08:35;;;;;;;16.98;11.65;;;;;;;;;;5037854;28;20061;-67
2022/05/02 05:11:22;;;;;;;17.25;11.80;;;;;;;;;;5050491;28;20032;-67
2022/05/02 05:16:52;;;;;;;17.75;11.00;;;;;;;;;;5051075;28;20393;-68
2022/05/02 05:19:34;;;;;;;19.88;11.68;;;;;;;;;;5043667;28;20108;-65
2022/05/02 05:22:28;;;;;;;17.75;10.95;;;;;;;;;;5048033;28;20552;-65
2022/05/02 05:25:06;;;;;;;17.10;10.48;;;;;;;;;;5054072;28;20080;-64
2022/05/02 05:27:57;;;;;;;15.85;10.88;;;;;;;;;;5053280;28;20032;-65
2022/05/02 05:30:27;;;;;;;18.70;10.68;;;;;;;;;;5034904;28;20070;-68
2022/05/02 05:33:19;;;;;;;17.83;10.55;;;;;;;;;;5053764;28;20470;-66
2022/05/02 05:36:03;;;;;;;16.15;10.43;;;;;;;;;;5046723;28;20025;-68
2022/05/02 05:38:57;;;;;;;20.50;11.80;;;;;;;;;;5044825;28;20028;-69
2022/05/02 05:41:43;;;;;;;19.55;10.82;;;;;;;;;;5014511;28;20051;-67
2022/05/02 05:44:31;;;;;;;15.48;10.00;;;;;;;;;;5018266;28;20034;-68
2022/05/02 05:47:33;;;;;;;14.70;9.77;;;;;;;;;;5053199;28;20037;-65
2022/05/02 05:50:20;;;;;;;16.25;9.93;;;;;;;;;;5043593;28;20114;-66
2022/05/02 05:52:54;;;;;;;19.42;10.38;;;;;;;;;;5031078;28;20037;-70
2022/05/02 05:55:30;;;;;;;15.63;10.38;;;;;;;;;;5034256;28;20073;-69
2022/05/02 05:57:58;;;;;;;16.23;9.73;;;;;;;;;;5033626;28;20040;-65
2022/05/02 06:00:29;;;;;;;14.30;9.82;;;;;;;;;;5046081;28;20037;-68
2022/05/02 06:03:01;;;;;;;;;;;;;;;;;;5052851;28;20033;-66
2022/05/02 06:05:28;;;;;;;14.98;9.02;;;;;;;;;;5051122;28;19912;-67
2022/05/02 06:07:55;;;;;;;13.23;9.35;;;;;;;;;;5050692;28;20100;-69
2022/05/02 06:10:23;;;;;;;14.93;9.00;;;;;;;;;;5053163;28;20033;-69
2022/05/02 06:12:50;;;;;;;16.13;9.25;;;;;;;;;;5044475;28;20403;-67
2022/05/02 06:20:51;;;;;;;15.27;9.52;;;;;;;;;;5031835;28;20075;-66
2022/05/02 06:23:17;;;;;;;14.10;9.13;;;;;;;;;;5052499;28;20057;-66
2022/05/02 06:25:48;;;;;;;17.67;8.60;;;;;;;;;;5049652;28;20148;-67
2022/05/02 06:28:15;;;;;;;14.45;8.65;;;;;;;;;;5050369;28;20044;-65
2022/05/02 06:30:43;;;;;;;19.67;8.57;;;;;;;;;;5032440;28;20029;-66
2022/05/02 06:33:13;;;;;;;13.88;9.13;;;;;;;;;;5023706;28;20537;-65
2022/05/02 06:35:53;;;;;;;13.18;8.73;;;;;;;;;;5033596;28;20071;-68
2022/05/02 06:38:32;;;;;;;14.00;8.50;;;;;;;;;;5034816;28;20037;-64
2022/05/02 06:41:06;;;;;;;12.48;8.45;;;;;;;;;;5034052;28;20030;-64
2022/05/02 06:43:34;;;;;;;13.75;8.48;;;;;;;;;;5028540;28;20037;-66
2022/05/02 06:46:19;;;;;;;11.45;7.93;;;;;;;;;;5048212;28;21731;-66
2022/05/02 06:49:07;;;;;;;12.55;8.85;;;;;;;;;;5052722;28;20379;-67
2022/05/02 06:51:38;;;;;;;12.77;8.25;;;;;;;;;;5051899;28;20037;-67
2022/05/02 06:54:34;;;;;;;13.18;8.45;;;;;;;;;;5039358;28;20061;-65
2022/05/02 06:57:10;;;;;;;12.05;8.10;;;;;;;;;;5036345;28;20367;-65
2022/05/02 06:59:48;;;;;;;10.95;8.02;;;;;;;;;;5015087;28;20033;-67
2022/05/02 07:02:24;;;;;;;15.68;8.88;;;;;;;;;;5039161;28;20482;-68
2022/05/02 07:04:56;;;;;;;12.38;8.23;;;;;;;;;;5041197;28;20064;-69
2022/05/02 07:07:21;;;;;;;16.45;8.60;;;;;;;;;;5032864;28;20042;-68
2022/05/02 07:09:55;;;;;;;14.20;8.27;;;;;;;;;;5038167;28;20422;-66
2022/05/02 07:12:24;;;;;;;12.35;8.00;;;;;;;;;;5031280;28;20116;-69
2022/05/02 07:14:53;;;;;;;12.63;8.23;;;;;;;;;;5039472;28;20064;-67
2022/05/02 07:17:48;;;;;;;11.90;8.00;;;;;;;;;;5028081;28;20060;-65
2022/05/02 07:20:23;;;;;;;12.65;7.95;;;;;;;;;;5019370;28;20042;-65
2022/05/02 07:23:28;;;;;;;13.40;8.35;;;;;;;;;;5072410;28;20398;-66
2022/05/02 07:26:03;;;;;;;11.30;7.78;;;;;;;;;;5071479;28;20406;-67
2022/05/02 07:28:44;;;;;;;11.32;8.50;;;;;;;;;;5065521;28;20033;-69
2022/05/02 07:31:11;;;;;;;13.43;8.23;;;;;;;;;;5066491;28;20119;-65
2022/05/02 07:33:38;;;;;;;11.68;8.30;;;;;;;;;;5050572;28;20546;-67
2022/05/02 07:36:05;;;;;;;12.65;7.82;;;;;;;;;;5080117;28;20032;-64
2022/05/02 07:38:32;;;;;;;10.57;7.78;;;;;;;;;;5048886;28;20115;-64
2022/05/02 07:43:47;;;;;;;13.77;8.30;;;;;;;;;;5085969;28;20055;-64
2022/05/02 07:46:16;;;;;;;11.65;8.10;;;;;;;;;;5087540;28;20043;-66
2022/05/02 07:48:43;;;;;;;11.13;7.57;;;;;;;;;;5079433;28;20023;-68
2022/05/02 07:51:11;;;;;;;12.20;7.90;;;;;;;;;;5067524;28;20048;-66
2022/05/02 07:53:39;;;;;;;11.13;8.10;;;;;;;;;;5078673;28;20083;-68
2022/05/02 07:56:08;;;;;;;13.90;8.40;;;;;;;;;;5087662;28;20032;-70
2022/05/02 07:58:35;;;;;;;13.68;8.50;;;;;;;;;;5077630;28;20053;-73
2022/05/02 08:01:00;;;;;;;11.10;8.15;;;;;;;;;;5047044;28;20497;-70
2022/05/02 08:03:27;;;;;;;13.38;8.35;;;;;;;;;;5074543;28;20043;-73
2022/05/02 08:06:03;;;;;;;14.07;8.63;;;;;;;;;;5088411;28;20051;-67
2022/05/02 08:08:47;;;;;;;12.95;8.15;;;;;;;;;;5082869;28;20549;-66
2022/05/02 08:11:12;;;;;;;12.02;8.23;;;;;;;;;;5069085;28;20472;-66
2022/05/02 08:14:16;;;;;;;14.35;8.25;;;;;;;;;;5087081;28;20040;-65
2022/05/02 08:16:58;;;;;;;14.68;8.07;;;;;;;;;;5072483;28;20126;-66
2022/05/02 08:19:50;;;;;;;11.40;8.25;;;;;;;;;;5079274;28;20028;-64
2022/05/02 08:28:02;;;;;;;13.13;7.57;;;;;;;;;;5078199;28;20054;-67
2022/05/02 08:30:32;;;;;;;11.27;7.43;;;;;;;;;;5086609;28;20492;-66
2022/05/02 08:33:07;;;;;;;12.20;7.97;;;;;;;;;;5062757;28;20028;-65
2022/05/02 08:35:43;;;;;;;11.25;7.45;;;;;;;;;;5068358;28;20090;-67
2022/05/02 08:38:45;;;;;;;11.00;7.68;;;;;;;;;;5073375;28;20036;-64
2022/05/02 08:41:22;;;;;;;13.30;7.63;;;;;;;;;;5035243;28;20489;-65
2022/05/02 08:44:25;;;;;;;10.48;7.47;;;;;;;;;;5038968;28;20033;-67
2022/05/02 08:47:16;;;;;;;11.00;7.10;;;;;;;;;;5035582;28;20029;-68
2022/05/02 08:50:21;;;;;;;10.10;7.10;;;;;;;;;;5064245;28;20567;-67
2022/05/02 08:53:03;;;;;;;10.50;6.82;;;;;;;;;;5054341;28;20033;-67
2022/05/02 08:55:29;;;;;;;9.82;7.03;;;;;;;;;;5065845;28;20513;-68
2022/05/02 08:58:16;;;;;;;10.60;6.88;;;;;;;;;;5059615;28;20029;-65
2022/05/02 09:01:00;;;;;;;12.77;7.13;;;;;;;;;;5070912;28;20439;-65
2022/05/02 09:03:48;;;;;;;11.95;6.75;;;;;;;;;;5067132;28;20033;-66
2022/05/02 09:06:56;;;;;;;10.00;6.95;;;;;;;;;;5050177;28;20104;-68
2022/05/02 09:09:42;;;;;;;12.00;7.30;;;;;;;;;;5033132;28;20053;-68
2022/05/02 09:12:42;;;;;;;12.35;7.38;;;;;;;;;;5042248;28;20414;-68
2022/05/02 09:15:13;;;;;;;11.18;7.30;;;;;;;;;;5072886;28;20113;-67
2022/05/02 09:17:41;;;;;;;11.32;7.35;;;;;;;;;;5059896;28;20466;-68
2022/05/02 09:20:41;;;;;;;11.75;7.30;;;;;;;;;;5049551;28;20112;-66
2022/05/02 09:23:56;;;;;;;12.57;7.18;;;;;;;;;;5048823;28;20033;-68
2022/05/02 09:26:56;;;;;;;13.75;7.72;;;;;;;;;;5051446;28;20044;-67
2022/05/02 09:29:49;;;;;;;13.75;7.10;;;;;;;;;;5045513;28;20033;-67
2022/05/02 09:32:45;;;;;;;12.10;6.95;;;;;;;;;;5058044;28;20217;-61
2022/05/02 09:35:28;;;;;;;10.52;6.93;;;;;;;;;;5046188;28;20139;-61
2022/05/02 09:37:59;;;;;;;11.82;6.97;;;;;;;;;;5046290;28;20025;-63
2022/05/02 09:40:35;;;;;;;15.30;7.63;;;;;;;;;;5052835;28;20103;-62
2022/05/02 09:43:21;;;;;;;12.70;7.15;;;;;;;;;;5062965;28;20131;-62
2022/05/02 09:52:06;;;;;;;12.50;7.55;;;;;;;;;;5050557;28;20049;-63
2022/05/02 09:58:10;;;;;;;12.90;7.50;;;;;;;;;;5059529;28;20047;-64
2022/05/02 10:01:13;;;;;;;10.20;6.47;;;;;;;;;;5072681;28;20113;-63
2022/05/02 10:04:14;;;;;;;9.13;6.07;;;;;;;;;;5054441;28;20048;-63
2022/05/02 10:06:47;;;;;;;10.35;6.57;;;;;;;;;;5051389;28;20574;-63
2022/05/02 10:09:41;;;;;;;11.35;6.53;;;;;;;;;;5070832;28;20335;-62
2022/05/02 10:12:25;;;;;;;9.73;6.43;;;;;;;;;;5068979;28;20406;-59
2022/05/02 10:15:13;;;;;;;11.40;6.65;;;;;;;;;;5073003;28;20032;-62
2022/05/02 10:17:58;;;;;;;12.35;6.63;;;;;;;;;;5062241;28;20071;-62
2022/05/02 10:20:33;;;;;;;11.98;6.32;;;;;;;;;;5057078;28;20047;-60
2022/05/02 10:23:15;;;;;;;9.77;6.55;;;;;;;;;;5030947;28;20041;-61
2022/05/02 10:25:51;;;;;;;9.23;6.30;;;;;;;;;;5050560;28;20032;-60
2022/05/02 10:28:47;;;;;;;9.23;6.70;;;;;;;;;;5043960;28;20089;-61
2022/05/02 10:31:19;;;;;;;10.15;6.00;;;;;;;;;;5042288;28;20103;-63
2022/05/02 10:33:51;;;;;;;11.57;6.32;;;;;;;;;;5046488;28;20452;-62
2022/05/02 10:36:20;;;;;;;10.00;6.72;;;;;;;;;;5051180;28;20028;-64
2022/05/02 10:38:54;;;;;;;8.75;6.32;;;;;;;;;;5049184;28;20471;-65
2022/05/02 10:41:43;;;;;;;11.80;6.40;;;;;;;;;;5051218;28;20451;-64
2022/05/02 10:45:01;;;;;;;11.13;6.32;;;;;;;;;;5039379;28;20140;-63
2022/05/02 10:47:38;;;;;;;10.98;6.25;;;;;;;;;;5015658;28;20050;-61
2022/05/02 10:50:16;;;;;;;9.73;6.28;;;;;;;;;;5050367;28;20029;-62
2022/05/02 10:52:53;;;;;;;9.82;6.28;;;;;;;;;;5010767;28;20029;-62
2022/05/02 10:55:19;;;;;;;12.48;7.00;;;;;;;;;;5013211;28;20487;-61
2022/05/02 10:57:55;;;;;;;9.02;6.60;;;;;;;;;;5040728;28;20040;-62
2022/05/02 11:00:23;;;;;;;11.20;5.93;;;;;;;;;;5047451;28;20032;-63
2022/05/02 11:03:03;;;;;;;8.90;6.78;;;;;;;;;;5039806;28;20135;-61
2022/05/02 11:05:43;;;;;;;11.85;6.47;;;;;;;;;;5048052;28;20033;-62
2022/05/02 11:08:34;;;;;;;8.70;6.43;;;;;;;;;;5047186;28;20041;-61
2022/05/02 11:11:06;;;;;;;;;;;;;;;;;;5040776;28;20122;-63
2022/05/02 11:13:59;;;;;;;9.90;6.40;;;;;;;;;;5035720;28;19913;-61
2022/05/02 11:16:56;;;;;;;8.60;6.07;;;;;;;;;;5051747;28;20033;-61
2022/05/02 11:22:33;;;;;;;8.73;6.18;;;;;;;;;;5061462;28;20512;-61
2022/05/02 11:25:20;;;;;;;12.75;6.10;;;;;;;;;;5066056;28;20041;-61
2022/05/02 11:27:48;;;;;;;7.78;6.20;;;;;;;;;;5052068;28;20048;-63
2022/05/02 11:30:18;;;;;;;12.10;6.15;;;;;;;;;;5054024;28;20032;-63
2022/05/02 11:33:04;;;;;;;;;;;;;;;;;;5071768;28;20359;-63
2022/05/02 11:35:33;;;;;;;8.77;6.03;;;;;;;;;;5031719;28;19909;-62
2022/05/02 11:38:50;;;;;;;9.38;5.68;;;;;;;;;;5036858;28;20517;-61
2022/05/02 11:41:18;;;;;;;8.43;5.65;;;;;;;;;;5020329;28;20621;-62
2022/05/02 11:43:45;;;;;;;7.30;5.75;;;;;;;;;;5052951;28;20025;-64
2022/05/02 11:46:26;;;;;;;8.68;5.93;;;;;;;;;;5062713;28;20419;-64
2022/05/02 11:48:54;;;;;;;7.90;5.75;;;;;;;;;;5071200;28;20056;-62
2022/05/02 11:51:37;;;;;;;8.60;5.90;;;;;;;;;;5067102;28;20036;-62
2022/05/02 11:54:11;;;;;;;9.27;6.20;;;;;;;;;;5066334;28;20032;-64
2022/05/02 11:56:54;;;;;;;7.78;5.70;;;;;;;;;;5048783;28;20052;-63
2022/05/02 11:59:22;;;;;;;9.63;5.70;;;;;;;;;;5050502;28;20040;-63
2022/05/02 12:01:52;;;;;;;10.52;5.60;;;;;;;;;;5051372;28;20132;-63
2022/05/02 12:04:22;;;;;;;13.20;6.43;;;;;;;;;;5038871;28;20586;-65
2022/05/02 12:07:04;;;;;;;8.82;5.88;;;;;;;;;;5069826;28;20716;-62
2022/05/02 12:09:32;;;;;;;9.50;5.50;;;;;;;;;;5059834;28;20028;-63
2022/05/02 12:12:04;;;;;;;8.20;5.72;;;;;;;;;;5073908;28;20405;-63
2022/05/02 12:14:31;;;;;;;8.52;5.30;;;;;;;;;;5064511;28;20029;-64
2022/05/02 12:17:06;;;;;;;8.25;5.68;;;;;;;;;;5054362;28;20163;-64
2022/05/02 12:19:33;;;;;;;7.25;5.13;;;;;;;;;;5052102;28;20032;-61
2022/05/02 12:22:15;;;;;;;8.10;4.85;;;;;;;;;;5046626;28;20071;-63
2022/05/02 12:24:43;;;;;;;10.05;5.25;;;;;;;;;;5043158;28;20025;-63
2022/05/02 12:27:10;;;;;;;7.90;5.72;;;;;;;;;;5054173;28;20032;-63
2022/05/02 12:29:36;;;;;;;8.27;5.18;;;;;;;;;;5053753;28;20040;-63
2022/05/02 12:32:05;;;;;;;7.45;5.30;;;;;;;;;;5051953;28;20483;-63
2022/05/02 12:34:39;;;;;;;8.20;5.40;;;;;;;;;;5054409;28;20029;-63
2022/05/02 12:37:30;;;;;;;10.10;5.55;;;;;;;;;;5051996;28;20359;-63
2022/05/02 12:40:19;;;;;;;8.82;6.00;;;;;;;;;;5057912;28;20037;-63
2022/05/02 12:43:03;;;;;;;8.38;5.13;;;;;;;;;;5050156;28;20453;-63
2022/05/02 12:45:44;;;;;;;7.18;5.50;;;;;;;;;;5054252;28;20056;-62
2022/05/02 12:48:21;;;;;;;6.95;4.90;;;;;;;;;;5049902;28;20031;-63
2022/05/02 12:50:48;;;;;;;7.47;5.00;;;;;;;;;;5054172;28;20033;-63
2022/05/02 12:54:09;;;;;;;6.60;4.95;;;;;;;;;;5067821;28;20042;-64
2022/05/02 12:56:06;;;;;;;8.25;5.22;;;;;;;;;;5045505;28;20405;-64
2022/05/02 13:01:20;;;;;;;6.57;4.60;;;;;;;;;;5066284;28;20616;-63
2022/05/02 13:03:53;;;;;;;6.95;5.13;;;;;;;;;;5073909;28;20382;-61
2022/05/02 13:06:20;;;;;;;6.43;5.13;;;;;;;;;;5056773;28;20368;-63
2022/05/02 13:08:45;;;;;;;7.45;5.07;;;;;;;;;;5053458;28;20108;-61
2022/05/02 13:11:22;;;;;;;6.57;5.30;;;;;;;;;;5043810;28;20547;-62
2022/05/02 13:13:52;;;;;;;12.88;5.47;;;;;;;;;;5049760;28;20116;-61
2022/05/02 13:16:23;;;;;;;9.05;5.50;;;;;;;;;;5052743;28;20522;-63
2022/05/02 13:18:49;;;;;;;7.90;5.40;;;;;;;;;;5053076;28;20037;-62
2022/05/02 13:21:16;;;;;;;12.85;5.63;;;;;;;;;;5053492;28;20255;-64
2022/05/02 13:23:45;;;;;;;7.07;5.22;;;;;;;;;;5053194;28;20394;-63
2022/05/02 13:26:33;;;;;;;7.95;5.88;;;;;;;;;;5063473;28;20033;-63
2022/05/02 13:29:07;;;;;;;8.50;5.70;;;;;;;;;;5072170;28;20033;-64
2022/05/02 13:31:45;;;;;;;7.85;5.63;;;;;;;;;;5058819;28;20112;-61
2022/05/02 13:34:29;;;;;;;9.63;5.43;;;;;;;;;;5053282;28;20036;-62
2022/05/02 13:37:12;;;;;;;7.90;5.63;;;;;;;;;;5049402;28;20040;-62
2022/05/02 13:40:08;;;;;;;9.68;5.88;;;;;;;;;;5071622;28;20036;-62
2022/05/02 13:42:42;;;;;;;8.25;5.55;;;;;;;;;;5071918;28;20386;-62
2022/05/02 13:45:19;;;;;;;8.13;5.40;;;;;;;;;;5068330;28;20067;-62
2022/05/02 13:47:55;;;;;;;8.82;5.93;;;;;;;;;;5072517;28;20036;-62
2022/05/02 13:50:26;;;;;;;9.18;6.07;;;;;;;;;;5064378;28;20032;-62
2022/05/02 13:53:18;;;;;;;8.35;5.82;;;;;;;;;;5051634;28;20475;-64
2022/05/02 13:55:50;;;;;;;8.43;5.78;;;;;;;;;;5053075;28;20029;-61
2022/05/02 13:58:40;;;;;;;11.48;5.93;;;;;;;;;;5054216;28;20215;-64
2022/05/02 14:01:32;;;;;;;8.18;5.25;;;;;;;;;;5050620;28;20033;-64
2022/05/02 14:04:03;;;;;;;8.93;5.90;;;;;;;;;;5052851;28;20040;-64
2022/05/02 14:06:42;;;;;;;8.07;5.32;;;;;;;;;;5052614;28;20036;-63
2022/05/02 14:09:08;;;;;;;7.68;5.40;;;;;;;;;;5049372;28;20029;-64
2022/05/02 14:11:37;;;;;;;10.32;5.97;;;;;;;;;;5054623;28;20436;-63
2022/05/02 14:14:12;;;;;;;11.50;5.68;;;;;;;;;;5047195;28;20134;-64
2022/05/02 14:16:38;;;;;;;6.00;5.30;;;;;;;;;;5067687;28;20539;-64
2022/05/02 14:19:08;;;;;;;7.50;5.47;;;;;;;;;;5068482;28;20038;-65
2022/05/02 14:21:38;;;;;;;9.05;6.07;;;;;;;;;;5033175;28;20102;-65
2022/05/02 14:24:04;;;;;;;6.45;5.50;;;;;;;;;;5031324;28;20061;-65
2022/05/02 14:26:30;;;;;;;12.63;6.68;;;;;;;;;;5048773;28;20071;-65
2022/05/02 14:28:57;;;;;;;8.80;5.30;;;;;;;;;;5046126;28;20036;-63
2022/05/02 14:31:35;;;;;;;8.18;5.70;;;;;;;;;;5058253;28;20040;-64
2022/05/02 14:34:08;;;;;;;9.13;5.88;;;;;;;;;;5070856;28;20037;-63
2022/05/02 14:36:36;;;;;;;9.13;5.88;;;;;;;;;;5055675;28;20033;-63
2022/05/02 14:39:06;;;;;;;8.55;5.70;;;;;;;;;;5049613;28;20437;-64
2022/05/02 14:41:39;;;;;;;11.98;6.15;;;;;;;;;;5052967;28;20456;-63
2022/05/02 14:44:09;;;;;;;10.23;5.57;;;;;;;;;;5047488;28;20073;-61
2022/05/02 14:46:40;;;;;;;10.43;6.05;;;;;;;;;;5045528;28;20033;-63
2022/05/02 14:49:07;;;;;;;10.73;5.80;;;;;;;;;;5050394;28;20067;-62
2022/05/02 14:51:38;;;;;;;7.75;5.78;;;;;;;;;;5050326;28;20037;-61
2022/05/02 14:54:10;;;;;;;14.27;5.90;;;;;;;;;;5032629;28;20108;-61
2022/05/02 14:56:42;;;;;;;7.65;6.05;;;;;;;;;;5066098;28;20032;-60
2022/05/02 14:59:19;;;;;;;10.75;5.95;;;;;;;;;;5050138;28;20041;-63
2022/05/02 15:01:47;;;;;;;8.68;6.35;;;;;;;;;;5041518;28;20037;-61
2022/05/02 15:04:19;;;;;;;8.48;6.30;;;;;;;;;;5044512;28;20029;-61
2022/05/02 15:06:51;;;;;;;9.55;6.15;;;;;;;;;;5051376;28;20037;-61
2022/05/02 15:09:23;;;;;;;7.55;5.22;;;;;;;;;;5058561;28;20352;-61
2022/05/02 15:12:09;;;;;;;10.27;5.90;;;;;;;;;;5071765;28;20028;-61
2022/05/02 15:14:56;;;;;;;7.05;5.80;;;;;;;;;;5066373;28;20037;-61
2022/05/02 15:17:26;;;;;;;9.43;5.75;;;;;;;;;;5033826;28;20033;-61
2022/05/02 15:20:16;;;;;;;10.65;6.28;;;;;;;;;;5048228;28;20030;-61
2022/05/02 15:22:52;;;;;;;10.63;6.18;;;;;;;;;;5050211;28;20052;-61
2022/05/02 15:25:23;;;;;;;8.30;6.25;;;;;;;;;;5069637;28;20052;-61
2022/05/02 15:38:51;;;;;;;7.72;6.10;;;;;;;;;;5038484;28;20094;-61
2022/05/02 15:41:43;;;;;;;8.93;5.40;;;;;;;;;;5042251;28;20040;-61
2022/05/02 15:44:19;;;;;;;7.80;5.82;;;;;;;;;;5052349;28;20071;-61
2022/05/02 15:47:03;;;;;;;8.13;6.10;;;;;;;;;;5055353;28;20056;-60
2022/05/02 15:49:39;;;;;;;12.27;6.25;;;;;;;;;;5062518;28;20501;-60
2022/05/02 15:52:11;;;;;;;9.80;5.75;;;;;;;;;;5054742;28;20130;-61